Current Weather

Chicago O'hare International

Chicago O'hare International, Illinois (KORD)

Report from: Monday, May 23, 2022 2:51 AM CDT
Current time: Monday, May 23, 2022 3:15 AM CDT

Nearby weather
Weather history
Weather forecast

Temperature8.9°C (48.0°F)
Dew point3.3°C (37.9°F)
Winds Calm
Visibility10 mi. (16.1 km)
Clouds Scattered clouds 25,000 ft. (7,620 m)
Altimeter30.35 in.Hg (1028 mB)
Relative humidity68 %
Density altitude-1,106 ft. (-337 m)
Sea-level pressure102.8 kPa (1028 mB, 30.36 in.Hg)
Remarks Automated weather observing station with precipitation discriminator
Flight conditions Visual Meteorological Conditions
Raw dataKORD 230751Z 00000KT 10SM SCT250 09/03 A3035 RMK AO2 SLP280 T00890033
An error has occurred. This application may no longer respond until reloaded. Reload 🗙